createdAt,value
2024-02-26T00:04:42.989Z,7.60
2024-02-26T00:09:45.832Z,5.80
2024-02-26T00:14:50.667Z,7.00
2024-02-26T00:19:55.140Z,6.20
2024-02-26T00:24:57.978Z,4.40
2024-02-26T00:30:00.873Z,5.00
2024-02-26T00:35:05.454Z,7.00
2024-02-26T00:40:10.017Z,4.20
2024-02-26T00:45:12.865Z,6.40
2024-02-26T00:50:17.594Z,7.40
2024-02-26T00:55:20.439Z,5.60
2024-02-26T01:00:23.531Z,7.00
2024-02-26T01:05:27.793Z,8.60
2024-02-26T01:10:30.657Z,9.20
2024-02-26T01:15:33.448Z,8.00
2024-02-26T01:20:37.930Z,6.20
2024-02-26T01:25:41.062Z,6.60
2024-02-26T01:30:44.006Z,4.60
2024-02-26T01:35:48.676Z,7.20
2024-02-26T01:40:51.620Z,6.60
2024-02-26T01:45:54.774Z,7.20
2024-02-26T01:50:59.257Z,5.40
2024-02-26T01:56:02.406Z,5.00
2024-02-26T02:01:05.537Z,4.80
2024-02-26T02:06:09.833Z,4.80
2024-02-26T02:11:13.714Z,6.20
2024-02-26T02:16:16.586Z,6.20
2024-02-26T02:21:20.819Z,5.00
2024-02-26T02:26:23.781Z,4.40
2024-02-26T02:31:26.611Z,4.80
2024-02-26T02:36:30.877Z,7.60
2024-02-26T02:41:33.759Z,7.40
2024-02-26T02:46:36.555Z,10.20
2024-02-26T02:51:40.778Z,10.20
2024-02-26T02:56:43.663Z,9.60
2024-02-26T03:01:46.478Z,5.80
2024-02-26T03:06:50.721Z,7.00
2024-02-26T03:11:53.723Z,4.60
2024-02-26T03:16:56.935Z,4.00
2024-02-26T03:22:01.107Z,6.40
2024-02-26T03:27:06.095Z,5.20
2024-02-26T03:32:08.974Z,4.80
2024-02-26T03:37:13.214Z,5.80
2024-02-26T03:42:17.550Z,7.00
2024-02-26T03:47:20.418Z,6.80
2024-02-26T03:52:24.624Z,7.20
2024-02-26T04:04:25.291Z,5.00
2024-02-26T04:09:29.537Z,6.40
2024-02-26T04:14:32.376Z,5.40
2024-02-26T04:19:35.333Z,8.80
2024-02-26T04:24:39.758Z,5.20
2024-02-26T04:29:42.615Z,7.00
2024-02-26T04:34:45.412Z,10.60
2024-02-26T04:39:51.269Z,7.20
2024-02-26T04:44:54.265Z,8.60
2024-02-26T04:49:57.177Z,8.80
2024-02-26T04:55:01.549Z,7.40
2024-02-26T05:00:06.118Z,7.60
2024-02-26T05:05:10.205Z,7.20
2024-02-26T05:10:14.493Z,6.40
2024-02-26T05:15:19.639Z,7.20
2024-02-26T05:20:22.769Z,8.00
2024-02-26T05:25:27.023Z,9.40
2024-02-26T05:30:30.299Z,10.20
2024-02-26T05:35:33.178Z,8.80
2024-02-26T05:40:37.750Z,8.20
2024-02-26T05:45:40.816Z,8.00
2024-02-26T05:50:43.749Z,7.80
2024-02-26T05:55:47.979Z,9.00
2024-02-26T06:00:51.066Z,8.80
2024-02-26T06:05:54.138Z,9.00
2024-02-26T06:10:58.426Z,9.40
2024-02-26T06:16:01.219Z,8.20
2024-02-26T06:21:04.302Z,7.80
2024-02-26T06:26:08.540Z,7.20
2024-02-26T06:31:11.347Z,9.60
2024-02-26T06:36:14.185Z,6.40
2024-02-26T06:41:18.376Z,9.20
2024-02-26T06:46:21.220Z,7.80
2024-02-26T06:51:24.326Z,8.80
2024-02-26T06:56:29.416Z,6.20
2024-02-26T07:01:32.511Z,10.40
2024-02-26T07:06:35.404Z,8.00
2024-02-26T07:11:40.639Z,7.60
2024-02-26T07:16:43.456Z,8.00
2024-02-26T07:21:46.257Z,7.60
2024-02-26T07:26:50.510Z,9.40
2024-02-26T07:31:53.273Z,10.00
2024-02-26T07:36:56.120Z,9.20
2024-02-26T07:42:00.473Z,12.80
2024-02-26T07:47:04.022Z,10.40
2024-02-26T07:52:07.134Z,34.20
2024-02-26T07:57:11.360Z,31.40
2024-02-26T08:02:14.120Z,34.20
2024-02-26T08:07:17.951Z,40.50
2024-02-26T08:12:22.380Z,29.60
2024-02-26T08:17:25.358Z,28.60
2024-02-26T08:22:28.191Z,26.60
2024-02-26T08:27:32.415Z,20.40
2024-02-26T08:32:35.224Z,21.00
2024-02-26T08:37:38.056Z,23.20
2024-02-26T08:42:42.244Z,21.60
2024-02-26T08:47:46.874Z,23.60
2024-02-26T08:52:51.903Z,20.40
2024-02-26T08:57:56.122Z,22.60
2024-02-26T09:03:00.678Z,19.20
2024-02-26T09:08:05.244Z,20.40
2024-02-26T09:13:09.430Z,20.60
2024-02-26T09:18:12.407Z,19.20
2024-02-26T09:23:15.411Z,20.40
2024-02-26T09:28:19.563Z,21.20
2024-02-26T09:33:23.298Z,17.20
2024-02-26T09:38:26.345Z,19.00
2024-02-26T09:43:31.048Z,18.80
2024-02-26T09:48:34.812Z,16.60
2024-02-26T09:53:40.596Z,19.00
2024-02-26T09:58:46.744Z,17.80
2024-02-26T10:03:52.886Z,16.80
2024-02-26T10:08:56.630Z,19.40
2024-02-26T10:14:00.961Z,18.20
2024-02-26T10:19:03.985Z,18.80
2024-02-26T10:24:07.160Z,15.40
2024-02-26T10:29:11.358Z,17.80
2024-02-26T10:34:14.287Z,17.60
2024-02-26T10:39:17.331Z,18.20
2024-02-26T10:44:21.609Z,16.80
2024-02-26T10:49:25.004Z,20.00
2024-02-26T10:54:29.726Z,18.20
2024-02-26T10:59:34.011Z,15.40
2024-02-26T11:04:36.910Z,19.80
2024-02-26T11:09:44.672Z,19.40
2024-02-26T11:14:49.985Z,18.80
2024-02-26T11:19:54.829Z,17.00
2024-02-26T11:24:58.617Z,14.20
2024-02-26T11:30:03.558Z,17.00
2024-02-26T11:35:08.453Z,13.80
2024-02-26T11:40:13.816Z,17.80
2024-02-26T11:46:00.485Z,17.40
2024-02-26T11:51:04.052Z,15.40
2024-02-26T11:56:27.345Z,16.40
2024-02-26T12:01:43.446Z,20.20
2024-02-26T12:06:47.971Z,14.60
2024-02-26T12:11:51.036Z,19.00
2024-02-26T12:16:55.294Z,16.60
2024-02-26T12:21:58.283Z,17.80
2024-02-26T12:27:01.386Z,15.20
2024-02-26T12:32:08.304Z,15.80
2024-02-26T12:37:11.728Z,14.00
2024-02-26T12:42:14.572Z,13.60
2024-02-26T12:47:19.568Z,16.80
2024-02-26T12:52:22.937Z,17.60
2024-02-26T12:57:26.463Z,17.40
2024-02-26T13:02:31.495Z,15.00
2024-02-26T13:07:34.416Z,17.20
2024-02-26T13:12:37.475Z,26.20
2024-02-26T13:17:41.834Z,30.40
2024-02-26T13:22:44.741Z,27.20
2024-02-26T13:27:47.561Z,26.20
2024-02-26T13:32:51.813Z,25.20
2024-02-26T13:37:54.934Z,21.00
2024-02-26T13:42:59.041Z,18.40
2024-02-26T13:48:04.257Z,15.00
2024-02-26T13:53:07.295Z,16.80
2024-02-26T13:58:10.488Z,14.00
2024-02-26T14:03:14.745Z,15.00
2024-02-26T14:08:17.782Z,19.20
2024-02-26T14:13:20.681Z,15.60
2024-02-26T14:18:25.556Z,15.40
2024-02-26T14:23:28.850Z,16.00
2024-02-26T14:28:36.543Z,16.40
2024-02-26T14:33:41.780Z,12.80
2024-02-26T14:38:46.018Z,15.80
2024-02-26T14:43:48.831Z,13.40
2024-02-26T14:48:53.112Z,12.00
2024-02-26T14:53:56.223Z,14.80
2024-02-26T14:58:59.235Z,16.00
2024-02-26T15:04:05.103Z,17.40
2024-02-26T15:09:08.909Z,18.60
2024-02-26T15:14:11.831Z,15.20
2024-02-26T15:19:17.849Z,12.60
2024-02-26T15:24:21.046Z,28.20
2024-02-26T15:29:23.933Z,19.20
2024-02-26T15:34:28.188Z,23.60
2024-02-26T15:39:31.256Z,20.40
2024-02-26T15:44:34.071Z,21.60
2024-02-26T15:49:38.497Z,22.80
2024-02-26T15:54:41.721Z,19.60
2024-02-26T15:59:44.714Z,20.20
2024-02-26T16:04:49.369Z,19.60
2024-02-26T16:09:53.295Z,19.80
2024-02-26T16:14:57.031Z,24.60
2024-02-26T16:20:01.535Z,21.00
2024-02-26T16:25:05.012Z,20.20
2024-02-26T16:30:08.961Z,21.40
2024-02-26T16:35:13.259Z,21.20
2024-02-26T16:40:17.601Z,22.20
2024-02-26T16:45:21.771Z,21.80
2024-02-26T16:50:27.429Z,14.60
2024-02-26T16:55:30.501Z,21.40
2024-02-26T17:00:33.518Z,32.40
2024-02-26T17:05:37.812Z,24.20
2024-02-26T17:10:40.711Z,22.40
2024-02-26T17:15:43.505Z,27.60
2024-02-26T17:20:47.673Z,28.00
2024-02-26T17:25:50.737Z,37.20
2024-02-26T17:30:53.583Z,26.80
2024-02-26T17:35:57.838Z,28.20
2024-02-26T17:41:00.892Z,26.80
2024-02-26T17:46:03.829Z,21.60
2024-02-26T17:51:08.310Z,32.20
2024-02-26T17:56:11.389Z,29.20
2024-02-26T18:01:14.339Z,27.80
2024-02-26T18:06:18.645Z,21.20
2024-02-26T18:11:21.580Z,19.40
2024-02-26T18:16:24.626Z,25.40
2024-02-26T18:21:28.952Z,27.40
2024-02-26T18:26:31.816Z,24.80
2024-02-26T18:31:34.662Z,22.60
2024-02-26T18:36:38.950Z,19.40
2024-02-26T18:41:41.814Z,23.00
2024-02-26T18:46:46.505Z,26.40
2024-02-26T18:51:50.699Z,28.60
2024-02-26T18:56:53.600Z,28.60
2024-02-26T19:01:56.429Z,29.80
2024-02-26T19:07:00.641Z,18.20
2024-02-26T19:12:03.677Z,21.60
2024-02-26T19:17:06.692Z,30.20
2024-02-26T19:22:13.297Z,23.40
2024-02-26T19:27:17.175Z,23.00
2024-02-26T19:32:20.032Z,22.40
2024-02-26T19:44:22.531Z,19.20
2024-02-26T19:49:25.433Z,20.40
2024-02-26T19:54:28.346Z,28.00
2024-02-26T19:59:32.554Z,19.20
2024-02-26T20:04:35.930Z,22.80
2024-02-26T20:09:39.610Z,22.60
2024-02-26T20:14:45.812Z,22.60
2024-02-26T20:19:48.834Z,30.60
2024-02-26T20:24:51.762Z,44.75
2024-02-26T20:29:57.834Z,50.00
2024-02-26T20:35:00.794Z,58.00
2024-02-26T20:40:07.097Z,64.00
2024-02-26T20:45:11.754Z,73.50
2024-02-26T20:50:14.642Z,77.00
2024-02-26T20:55:17.444Z,82.75
2024-02-26T21:00:22.284Z,90.75
2024-02-26T21:05:25.270Z,98.25
2024-02-26T21:10:30.553Z,103.75
2024-02-26T21:15:34.834Z,109.50
2024-02-26T21:20:37.674Z,108.50
2024-02-26T21:25:40.541Z,111.25
2024-02-26T21:30:44.853Z,113.00
2024-02-26T21:35:47.775Z,115.00
2024-02-26T21:40:50.631Z,115.00
2024-02-26T21:45:54.773Z,119.50
2024-02-26T21:50:57.615Z,115.50
2024-02-26T21:56:00.813Z,120.25
2024-02-26T22:01:05.669Z,115.25
2024-02-26T22:06:10.463Z,111.50
2024-02-26T22:11:13.401Z,114.25
2024-02-26T22:16:17.742Z,112.00
2024-02-26T22:21:20.575Z,110.50
2024-02-26T22:26:23.468Z,109.75
2024-02-26T22:31:28.835Z,112.50
2024-02-26T22:36:33.820Z,109.50
2024-02-26T22:41:41.601Z,108.50
2024-02-26T22:46:45.824Z,110.50
2024-02-26T22:51:49.777Z,107.25
2024-02-26T22:56:52.607Z,110.25
2024-02-26T23:01:56.811Z,108.00
2024-02-26T23:07:00.343Z,111.50
2024-02-26T23:12:03.243Z,107.75
2024-02-26T23:17:07.516Z,108.00
2024-02-26T23:22:10.364Z,108.25
2024-02-26T23:27:13.202Z,108.25
2024-02-26T23:32:17.343Z,109.25
2024-02-26T23:37:20.077Z,112.00
2024-02-26T23:42:23.028Z,106.00
2024-02-26T23:47:28.234Z,106.50
2024-02-26T23:52:31.066Z,103.00
2024-02-26T23:57:34.013Z,105.50
